sensor_id;sensor_type;location;lat;lon;timestamp;temperature;humidity
21019;DHT22;10667;51.056;3.732;2023-10-31T00:01:20;13.20;99.90
21019;DHT22;10667;51.056;3.732;2023-10-31T00:03:46;13.20;99.90
21019;DHT22;10667;51.056;3.732;2023-10-31T00:06:12;13.20;99.90
21019;DHT22;10667;51.056;3.732;2023-10-31T00:08:37;13.30;99.90
21019;DHT22;10667;51.056;3.732;2023-10-31T00:11:03;13.40;99.90
21019;DHT22;10667;51.056;3.732;2023-10-31T00:13:28;13.30;99.90
21019;DHT22;10667;51.056;3.732;2023-10-31T00:15:54;13.20;99.90
21019;DHT22;10667;51.056;3.732;2023-10-31T00:18:20;13.10;99.90
21019;DHT22;10667;51.056;3.732;2023-10-31T00:20:46;13.20;99.90
21019;DHT22;10667;51.056;3.732;2023-10-31T00:23:12;13.30;99.90
21019;DHT22;10667;51.056;3.732;2023-10-31T00:25:37;13.30;99.90
21019;DHT22;10667;51.056;3.732;2023-10-31T00:28:03;13.30;99.90
21019;DHT22;10667;51.056;3.732;2023-10-31T00:30:29;13.30;99.90
21019;DHT22;10667;51.056;3.732;2023-10-31T00:32:55;13.30;99.90
21019;DHT22;10667;51.056;3.732;2023-10-31T00:35:20;13.30;99.90
21019;DHT22;10667;51.056;3.732;2023-10-31T00:37:46;13.30;99.90
21019;DHT22;10667;51.056;3.732;2023-10-31T00:40:12;13.20;99.90
21019;DHT22;10667;51.056;3.732;2023-10-31T00:42:38;13.30;99.90
21019;DHT22;10667;51.056;3.732;2023-10-31T00:45:04;13.30;99.90
21019;DHT22;10667;51.056;3.732;2023-10-31T00:47:30;13.20;99.90
21019;DHT22;10667;51.056;3.732;2023-10-31T00:49:56;13.10;99.90
21019;DHT22;10667;51.056;3.732;2023-10-31T00:52:21;13.10;99.90
21019;DHT22;10667;51.056;3.732;2023-10-31T00:54:47;13.10;99.90
21019;DHT22;10667;51.056;3.732;2023-10-31T00:57:12;13.00;99.90
21019;DHT22;10667;51.056;3.732;2023-10-31T00:59:38;13.00;99.90
21019;DHT22;10667;51.056;3.732;2023-10-31T01:02:04;13.10;99.90
21019;DHT22;10667;51.056;3.732;2023-10-31T01:04:30;13.00;99.90
21019;DHT22;10667;51.056;3.732;2023-10-31T01:06:56;12.90;99.90
21019;DHT22;10667;51.056;3.732;2023-10-31T01:09:22;12.60;99.90
21019;DHT22;10667;51.056;3.732;2023-10-31T01:11:48;12.60;99.90
21019;DHT22;10667;51.056;3.732;2023-10-31T01:14:13;12.60;99.90
21019;DHT22;10667;51.056;3.732;2023-10-31T01:16:40;12.50;99.90
21019;DHT22;10667;51.056;3.732;2023-10-31T01:19:06;12.50;99.90
21019;DHT22;10667;51.056;3.732;2023-10-31T01:21:31;12.60;99.90
21019;DHT22;10667;51.056;3.732;2023-10-31T01:23:59;12.70;99.90
21019;DHT22;10667;51.056;3.732;2023-10-31T01:26:24;12.70;99.90
21019;DHT22;10667;51.056;3.732;2023-10-31T01:28:50;12.80;99.90
21019;DHT22;10667;51.056;3.732;2023-10-31T01:31:17;12.80;99.90
21019;DHT22;10667;51.056;3.732;2023-10-31T01:33:42;12.90;99.90
21019;DHT22;10667;51.056;3.732;2023-10-31T01:36:08;12.90;99.90
21019;DHT22;10667;51.056;3.732;2023-10-31T01:38:36;12.80;99.90
21019;DHT22;10667;51.056;3.732;2023-10-31T01:41:01;12.80;99.90
21019;DHT22;10667;51.056;3.732;2023-10-31T01:43:35;12.70;99.90
21019;DHT22;10667;51.056;3.732;2023-10-31T01:46:01;12.80;99.90
21019;DHT22;10667;51.056;3.732;2023-10-31T01:48:29;12.80;99.90
21019;DHT22;10667;51.056;3.732;2023-10-31T01:50:55;12.70;99.90
21019;DHT22;10667;51.056;3.732;2023-10-31T01:53:22;12.80;99.90
21019;DHT22;10667;51.056;3.732;2023-10-31T01:55:49;12.80;99.90
21019;DHT22;10667;51.056;3.732;2023-10-31T01:58:15;12.90;99.90
21019;DHT22;10667;51.056;3.732;2023-10-31T02:00:41;12.90;99.90
21019;DHT22;10667;51.056;3.732;2023-10-31T02:03:08;12.80;99.90
21019;DHT22;10667;51.056;3.732;2023-10-31T02:05:34;12.90;99.90
21019;DHT22;10667;51.056;3.732;2023-10-31T02:08:03;13.00;99.90
21019;DHT22;10667;51.056;3.732;2023-10-31T02:10:30;12.80;99.90
21019;DHT22;10667;51.056;3.732;2023-10-31T02:12:56;12.80;99.90
21019;DHT22;10667;51.056;3.732;2023-10-31T02:15:21;12.70;99.90
21019;DHT22;10667;51.056;3.732;2023-10-31T02:17:47;12.80;99.90
21019;DHT22;10667;51.056;3.732;2023-10-31T02:20:13;12.80;99.90
21019;DHT22;10667;51.056;3.732;2023-10-31T02:22:38;12.80;99.90
21019;DHT22;10667;51.056;3.732;2023-10-31T02:25:16;12.80;99.90
21019;DHT22;10667;51.056;3.732;2023-10-31T02:27:42;12.80;99.90
21019;DHT22;10667;51.056;3.732;2023-10-31T02:30:08;12.70;99.90
21019;DHT22;10667;51.056;3.732;2023-10-31T02:32:33;12.60;99.90
21019;DHT22;10667;51.056;3.732;2023-10-31T02:34:59;12.60;99.90
21019;DHT22;10667;51.056;3.732;2023-10-31T02:37:25;12.50;99.90
21019;DHT22;10667;51.056;3.732;2023-10-31T02:39:50;12.60;99.90
21019;DHT22;10667;51.056;3.732;2023-10-31T02:42:16;12.60;99.90
21019;DHT22;10667;51.056;3.732;2023-10-31T02:44:41;12.60;99.90
21019;DHT22;10667;51.056;3.732;2023-10-31T02:47:07;12.50;99.90
21019;DHT22;10667;51.056;3.732;2023-10-31T02:49:33;12.50;99.90
21019;DHT22;10667;51.056;3.732;2023-10-31T02:51:58;12.50;99.90
21019;DHT22;10667;51.056;3.732;2023-10-31T02:54:24;12.50;99.90
21019;DHT22;10667;51.056;3.732;2023-10-31T02:56:50;12.40;99.90
21019;DHT22;10667;51.056;3.732;2023-10-31T02:59:15;12.30;99.90
21019;DHT22;10667;51.056;3.732;2023-10-31T03:01:41;12.30;99.90
21019;DHT22;10667;51.056;3.732;2023-10-31T03:04:07;12.40;99.90
21019;DHT22;10667;51.056;3.732;2023-10-31T03:06:32;12.40;99.90
21019;DHT22;10667;51.056;3.732;2023-10-31T03:08:58;12.30;99.90
21019;DHT22;10667;51.056;3.732;2023-10-31T03:11:24;12.20;99.90
21019;DHT22;10667;51.056;3.732;2023-10-31T03:13:50;12.20;99.90
21019;DHT22;10667;51.056;3.732;2023-10-31T03:16:16;12.10;99.90
21019;DHT22;10667;51.056;3.732;2023-10-31T03:18:42;12.10;99.90
21019;DHT22;10667;51.056;3.732;2023-10-31T03:21:07;12.20;99.90
21019;DHT22;10667;51.056;3.732;2023-10-31T03:23:33;12.10;99.90
21019;DHT22;10667;51.056;3.732;2023-10-31T03:25:58;12.10;99.90
21019;DHT22;10667;51.056;3.732;2023-10-31T03:28:24;12.10;99.90
21019;DHT22;10667;51.056;3.732;2023-10-31T03:30:50;12.00;99.90
21019;DHT22;10667;51.056;3.732;2023-10-31T03:33:16;12.10;99.90
21019;DHT22;10667;51.056;3.732;2023-10-31T03:35:43;12.10;99.90
21019;DHT22;10667;51.056;3.732;2023-10-31T03:38:09;12.10;99.90
21019;DHT22;10667;51.056;3.732;2023-10-31T03:40:34;12.10;99.90
21019;DHT22;10667;51.056;3.732;2023-10-31T03:43:00;12.00;99.90
21019;DHT22;10667;51.056;3.732;2023-10-31T03:45:25;12.10;99.90
21019;DHT22;10667;51.056;3.732;2023-10-31T03:47:51;12.00;99.90
21019;DHT22;10667;51.056;3.732;2023-10-31T03:50:17;12.00;99.90
21019;DHT22;10667;51.056;3.732;2023-10-31T03:52:42;11.90;99.90
21019;DHT22;10667;51.056;3.732;2023-10-31T03:55:08;11.90;99.90
21019;DHT22;10667;51.056;3.732;2023-10-31T03:57:34;11.90;99.90
21019;DHT22;10667;51.056;3.732;2023-10-31T04:00:00;12.10;99.90
21019;DHT22;10667;51.056;3.732;2023-10-31T04:02:26;12.10;99.90
21019;DHT22;10667;51.056;3.732;2023-10-31T04:04:51;12.00;99.90
21019;DHT22;10667;51.056;3.732;2023-10-31T04:07:17;12.00;99.90
21019;DHT22;10667;51.056;3.732;2023-10-31T04:09:42;12.00;99.90
21019;DHT22;10667;51.056;3.732;2023-10-31T04:12:09;12.00;99.90
21019;DHT22;10667;51.056;3.732;2023-10-31T04:14:34;12.00;99.90
21019;DHT22;10667;51.056;3.732;2023-10-31T04:17:00;12.00;99.90
21019;DHT22;10667;51.056;3.732;2023-10-31T04:19:26;11.90;99.90
21019;DHT22;10667;51.056;3.732;2023-10-31T04:21:53;12.10;99.90
21019;DHT22;10667;51.056;3.732;2023-10-31T04:24:19;12.10;99.90
21019;DHT22;10667;51.056;3.732;2023-10-31T04:26:45;11.90;99.90
21019;DHT22;10667;51.056;3.732;2023-10-31T04:29:10;11.80;99.90
21019;DHT22;10667;51.056;3.732;2023-10-31T04:31:36;11.80;99.90
21019;DHT22;10667;51.056;3.732;2023-10-31T04:34:02;11.80;99.90
21019;DHT22;10667;51.056;3.732;2023-10-31T04:36:27;11.90;99.90
21019;DHT22;10667;51.056;3.732;2023-10-31T04:38:53;11.90;99.90
21019;DHT22;10667;51.056;3.732;2023-10-31T04:41:19;12.10;99.90
21019;DHT22;10667;51.056;3.732;2023-10-31T04:43:45;12.20;99.90
21019;DHT22;10667;51.056;3.732;2023-10-31T04:46:11;12.20;99.90
21019;DHT22;10667;51.056;3.732;2023-10-31T04:48:37;12.10;99.90
21019;DHT22;10667;51.056;3.732;2023-10-31T04:51:03;11.90;99.90
21019;DHT22;10667;51.056;3.732;2023-10-31T04:53:28;12.00;99.90
21019;DHT22;10667;51.056;3.732;2023-10-31T04:55:54;12.00;99.90
21019;DHT22;10667;51.056;3.732;2023-10-31T04:58:20;12.00;99.90
21019;DHT22;10667;51.056;3.732;2023-10-31T05:00:46;11.90;99.90
21019;DHT22;10667;51.056;3.732;2023-10-31T05:03:12;11.90;99.90
21019;DHT22;10667;51.056;3.732;2023-10-31T05:05:37;11.80;99.90
21019;DHT22;10667;51.056;3.732;2023-10-31T05:08:03;11.90;99.90
21019;DHT22;10667;51.056;3.732;2023-10-31T05:10:29;12.00;99.90
21019;DHT22;10667;51.056;3.732;2023-10-31T05:12:55;11.90;99.90
21019;DHT22;10667;51.056;3.732;2023-10-31T05:15:20;11.80;99.90
21019;DHT22;10667;51.056;3.732;2023-10-31T05:17:46;11.90;99.90
21019;DHT22;10667;51.056;3.732;2023-10-31T05:20:11;12.00;99.90
21019;DHT22;10667;51.056;3.732;2023-10-31T05:22:37;12.00;99.90
21019;DHT22;10667;51.056;3.732;2023-10-31T05:25:03;12.00;99.90
21019;DHT22;10667;51.056;3.732;2023-10-31T05:27:30;11.90;99.90
21019;DHT22;10667;51.056;3.732;2023-10-31T05:29:56;11.70;99.90
21019;DHT22;10667;51.056;3.732;2023-10-31T05:32:21;11.70;99.90
21019;DHT22;10667;51.056;3.732;2023-10-31T05:34:47;11.60;99.90
21019;DHT22;10667;51.056;3.732;2023-10-31T05:37:13;11.80;99.90
21019;DHT22;10667;51.056;3.732;2023-10-31T05:39:38;11.80;99.90
21019;DHT22;10667;51.056;3.732;2023-10-31T05:42:04;11.80;99.90
21019;DHT22;10667;51.056;3.732;2023-10-31T05:44:30;11.90;99.90
21019;DHT22;10667;51.056;3.732;2023-10-31T05:46:55;11.80;99.90
21019;DHT22;10667;51.056;3.732;2023-10-31T05:49:21;11.70;99.90
21019;DHT22;10667;51.056;3.732;2023-10-31T05:51:51;11.70;99.90
21019;DHT22;10667;51.056;3.732;2023-10-31T05:54:17;11.60;99.90
21019;DHT22;10667;51.056;3.732;2023-10-31T05:56:42;11.70;99.90
21019;DHT22;10667;51.056;3.732;2023-10-31T05:59:08;11.70;99.90
21019;DHT22;10667;51.056;3.732;2023-10-31T06:01:34;11.70;99.90
21019;DHT22;10667;51.056;3.732;2023-10-31T06:04:00;11.80;99.90
21019;DHT22;10667;51.056;3.732;2023-10-31T06:06:25;11.60;99.90
21019;DHT22;10667;51.056;3.732;2023-10-31T06:08:51;11.70;99.90
21019;DHT22;10667;51.056;3.732;2023-10-31T06:11:17;11.80;99.90
21019;DHT22;10667;51.056;3.732;2023-10-31T06:13:43;11.90;99.90
21019;DHT22;10667;51.056;3.732;2023-10-31T06:16:08;11.90;99.90
21019;DHT22;10667;51.056;3.732;2023-10-31T06:18:34;11.80;99.90
21019;DHT22;10667;51.056;3.732;2023-10-31T06:21:00;11.90;99.90
21019;DHT22;10667;51.056;3.732;2023-10-31T06:23:26;11.90;99.90
21019;DHT22;10667;51.056;3.732;2023-10-31T06:25:51;11.80;99.90
21019;DHT22;10667;51.056;3.732;2023-10-31T06:28:17;11.90;99.90
21019;DHT22;10667;51.056;3.732;2023-10-31T06:30:43;12.20;99.90
21019;DHT22;10667;51.056;3.732;2023-10-31T06:33:08;12.20;99.90
21019;DHT22;10667;51.056;3.732;2023-10-31T06:35:35;12.40;99.90
21019;DHT22;10667;51.056;3.732;2023-10-31T06:38:02;12.30;99.90
21019;DHT22;10667;51.056;3.732;2023-10-31T06:40:27;12.10;99.90
21019;DHT22;10667;51.056;3.732;2023-10-31T06:42:53;12.00;99.90
21019;DHT22;10667;51.056;3.732;2023-10-31T06:45:19;12.20;99.90
21019;DHT22;10667;51.056;3.732;2023-10-31T06:47:44;12.10;99.90
21019;DHT22;10667;51.056;3.732;2023-10-31T06:50:10;12.20;99.90
21019;DHT22;10667;51.056;3.732;2023-10-31T06:52:36;12.00;99.90
21019;DHT22;10667;51.056;3.732;2023-10-31T06:55:01;12.10;99.90
21019;DHT22;10667;51.056;3.732;2023-10-31T06:57:27;12.10;99.90
21019;DHT22;10667;51.056;3.732;2023-10-31T06:59:53;12.10;99.90
21019;DHT22;10667;51.056;3.732;2023-10-31T07:02:19;12.10;99.90
21019;DHT22;10667;51.056;3.732;2023-10-31T07:04:44;12.10;99.90
21019;DHT22;10667;51.056;3.732;2023-10-31T07:07:10;12.00;99.90
21019;DHT22;10667;51.056;3.732;2023-10-31T07:09:36;12.00;99.90
21019;DHT22;10667;51.056;3.732;2023-10-31T07:12:01;12.20;99.90
21019;DHT22;10667;51.056;3.732;2023-10-31T07:14:27;12.20;99.90
21019;DHT22;10667;51.056;3.732;2023-10-31T07:16:53;12.20;99.90
21019;DHT22;10667;51.056;3.732;2023-10-31T07:19:18;12.30;99.90
21019;DHT22;10667;51.056;3.732;2023-10-31T07:21:44;12.40;99.90
21019;DHT22;10667;51.056;3.732;2023-10-31T07:24:09;12.50;99.90
21019;DHT22;10667;51.056;3.732;2023-10-31T07:26:35;12.50;99.90
21019;DHT22;10667;51.056;3.732;2023-10-31T07:29:01;12.40;99.90
21019;DHT22;10667;51.056;3.732;2023-10-31T07:31:26;12.30;99.90
21019;DHT22;10667;51.056;3.732;2023-10-31T07:33:52;12.30;99.90
21019;DHT22;10667;51.056;3.732;2023-10-31T07:36:18;12.40;99.90
21019;DHT22;10667;51.056;3.732;2023-10-31T07:38:44;12.40;99.90
21019;DHT22;10667;51.056;3.732;2023-10-31T07:41:09;12.50;99.90
21019;DHT22;10667;51.056;3.732;2023-10-31T07:43:35;12.50;99.90
21019;DHT22;10667;51.056;3.732;2023-10-31T07:46:00;12.40;99.90
21019;DHT22;10667;51.056;3.732;2023-10-31T07:48:26;12.40;99.90
21019;DHT22;10667;51.056;3.732;2023-10-31T07:50:52;12.30;99.90
21019;DHT22;10667;51.056;3.732;2023-10-31T07:53:17;12.50;99.90
21019;DHT22;10667;51.056;3.732;2023-10-31T07:55:43;12.40;99.90
21019;DHT22;10667;51.056;3.732;2023-10-31T07:58:09;12.40;99.90
21019;DHT22;10667;51.056;3.732;2023-10-31T08:00:38;12.20;99.90
21019;DHT22;10667;51.056;3.732;2023-10-31T08:03:04;12.20;99.90
21019;DHT22;10667;51.056;3.732;2023-10-31T08:05:30;12.20;99.90
21019;DHT22;10667;51.056;3.732;2023-10-31T08:07:55;12.10;99.90
21019;DHT22;10667;51.056;3.732;2023-10-31T08:10:21;12.10;99.90
21019;DHT22;10667;51.056;3.732;2023-10-31T08:12:47;12.20;99.90
21019;DHT22;10667;51.056;3.732;2023-10-31T08:15:12;12.30;99.90
21019;DHT22;10667;51.056;3.732;2023-10-31T08:17:39;12.30;99.90
21019;DHT22;10667;51.056;3.732;2023-10-31T08:20:05;12.50;99.90
21019;DHT22;10667;51.056;3.732;2023-10-31T08:22:31;12.60;99.90
21019;DHT22;10667;51.056;3.732;2023-10-31T08:24:57;12.60;99.90
21019;DHT22;10667;51.056;3.732;2023-10-31T08:27:23;12.50;99.90
21019;DHT22;10667;51.056;3.732;2023-10-31T08:29:48;12.50;99.90
21019;DHT22;10667;51.056;3.732;2023-10-31T08:32:14;12.50;99.90
21019;DHT22;10667;51.056;3.732;2023-10-31T08:34:39;12.60;99.90
21019;DHT22;10667;51.056;3.732;2023-10-31T08:37:05;12.70;99.90
21019;DHT22;10667;51.056;3.732;2023-10-31T08:39:31;12.60;99.90
21019;DHT22;10667;51.056;3.732;2023-10-31T08:41:57;12.30;99.90
21019;DHT22;10667;51.056;3.732;2023-10-31T08:44:23;12.50;99.90
21019;DHT22;10667;51.056;3.732;2023-10-31T08:46:49;12.50;99.90
21019;DHT22;10667;51.056;3.732;2023-10-31T08:49:15;12.40;99.90
21019;DHT22;10667;51.056;3.732;2023-10-31T08:51:42;12.50;99.90
21019;DHT22;10667;51.056;3.732;2023-10-31T08:54:08;12.50;99.90
21019;DHT22;10667;51.056;3.732;2023-10-31T08:56:34;12.50;99.90
21019;DHT22;10667;51.056;3.732;2023-10-31T08:59:00;12.50;99.90
21019;DHT22;10667;51.056;3.732;2023-10-31T09:01:27;12.60;99.90
21019;DHT22;10667;51.056;3.732;2023-10-31T09:03:54;12.70;99.90
21019;DHT22;10667;51.056;3.732;2023-10-31T09:06:20;12.60;99.90
21019;DHT22;10667;51.056;3.732;2023-10-31T09:08:45;12.60;99.90
21019;DHT22;10667;51.056;3.732;2023-10-31T09:11:11;12.80;99.90
21019;DHT22;10667;51.056;3.732;2023-10-31T09:13:37;12.70;99.90
21019;DHT22;10667;51.056;3.732;2023-10-31T09:16:03;12.70;99.90
21019;DHT22;10667;51.056;3.732;2023-10-31T09:18:28;12.80;99.90
21019;DHT22;10667;51.056;3.732;2023-10-31T09:20:54;12.80;99.90
21019;DHT22;10667;51.056;3.732;2023-10-31T09:23:20;13.00;99.90
21019;DHT22;10667;51.056;3.732;2023-10-31T09:25:46;12.90;99.90
21019;DHT22;10667;51.056;3.732;2023-10-31T09:28:12;13.00;99.90
21019;DHT22;10667;51.056;3.732;2023-10-31T09:30:38;12.80;99.90
21019;DHT22;10667;51.056;3.732;2023-10-31T09:33:03;12.70;99.90
21019;DHT22;10667;51.056;3.732;2023-10-31T09:35:29;12.70;99.90
21019;DHT22;10667;51.056;3.732;2023-10-31T09:37:55;12.60;99.90
21019;DHT22;10667;51.056;3.732;2023-10-31T09:40:21;12.70;99.90
21019;DHT22;10667;51.056;3.732;2023-10-31T09:42:48;12.50;99.90
21019;DHT22;10667;51.056;3.732;2023-10-31T09:45:15;12.50;99.90
21019;DHT22;10667;51.056;3.732;2023-10-31T09:47:41;12.60;99.90
21019;DHT22;10667;51.056;3.732;2023-10-31T09:50:10;12.60;99.90
21019;DHT22;10667;51.056;3.732;2023-10-31T09:52:36;12.70;99.90
21019;DHT22;10667;51.056;3.732;2023-10-31T09:55:02;12.60;99.90
21019;DHT22;10667;51.056;3.732;2023-10-31T09:57:29;12.50;99.90
21019;DHT22;10667;51.056;3.732;2023-10-31T09:59:54;12.50;99.90
21019;DHT22;10667;51.056;3.732;2023-10-31T10:02:20;12.60;99.90
21019;DHT22;10667;51.056;3.732;2023-10-31T10:04:47;12.60;99.90
21019;DHT22;10667;51.056;3.732;2023-10-31T10:07:17;12.50;99.90
21019;DHT22;10667;51.056;3.732;2023-10-31T10:09:44;12.40;99.90
21019;DHT22;10667;51.056;3.732;2023-10-31T10:12:12;12.40;99.90
21019;DHT22;10667;51.056;3.732;2023-10-31T10:14:39;12.50;99.90
21019;DHT22;10667;51.056;3.732;2023-10-31T10:17:19;12.40;99.90
21019;DHT22;10667;51.056;3.732;2023-10-31T10:19:45;12.30;99.90
21019;DHT22;10667;51.056;3.732;2023-10-31T10:22:11;12.30;99.90
21019;DHT22;10667;51.056;3.732;2023-10-31T10:24:40;12.40;99.90
21019;DHT22;10667;51.056;3.732;2023-10-31T10:27:09;12.30;99.90
21019;DHT22;10667;51.056;3.732;2023-10-31T10:29:37;12.20;99.90
21019;DHT22;10667;51.056;3.732;2023-10-31T10:32:06;12.40;99.90
21019;DHT22;10667;51.056;3.732;2023-10-31T10:34:34;12.40;99.90
21019;DHT22;10667;51.056;3.732;2023-10-31T10:37:01;12.40;99.90
21019;DHT22;10667;51.056;3.732;2023-10-31T10:39:33;12.20;99.90
21019;DHT22;10667;51.056;3.732;2023-10-31T10:42:00;12.30;99.90
21019;DHT22;10667;51.056;3.732;2023-10-31T10:44:35;12.30;99.90
21019;DHT22;10667;51.056;3.732;2023-10-31T10:47:07;12.30;99.90
21019;DHT22;10667;51.056;3.732;2023-10-31T10:49:34;12.50;99.90
21019;DHT22;10667;51.056;3.732;2023-10-31T10:52:22;12.60;99.90
21019;DHT22;10667;51.056;3.732;2023-10-31T10:55:11;12.70;99.90
21019;DHT22;10667;51.056;3.732;2023-10-31T10:57:52;12.60;99.90
21019;DHT22;10667;51.056;3.732;2023-10-31T11:00:20;12.60;99.90
21019;DHT22;10667;51.056;3.732;2023-10-31T11:02:51;12.60;99.90
21019;DHT22;10667;51.056;3.732;2023-10-31T11:05:18;12.60;99.90
21019;DHT22;10667;51.056;3.732;2023-10-31T11:07:44;12.50;99.90
21019;DHT22;10667;51.056;3.732;2023-10-31T11:10:11;12.50;99.90
21019;DHT22;10667;51.056;3.732;2023-10-31T11:12:37;12.80;99.90
21019;DHT22;10667;51.056;3.732;2023-10-31T11:15:06;12.70;99.90
21019;DHT22;10667;51.056;3.732;2023-10-31T11:17:38;12.60;99.90
21019;DHT22;10667;51.056;3.732;2023-10-31T11:20:05;12.60;99.90
21019;DHT22;10667;51.056;3.732;2023-10-31T11:22:43;12.60;99.90
21019;DHT22;10667;51.056;3.732;2023-10-31T11:25:12;12.50;99.90
21019;DHT22;10667;51.056;3.732;2023-10-31T11:27:38;12.40;99.90
21019;DHT22;10667;51.056;3.732;2023-10-31T11:30:08;12.60;99.90
21019;DHT22;10667;51.056;3.732;2023-10-31T11:32:33;12.70;99.90
21019;DHT22;10667;51.056;3.732;2023-10-31T11:35:00;12.70;99.90
21019;DHT22;10667;51.056;3.732;2023-10-31T11:37:33;12.80;99.90
21019;DHT22;10667;51.056;3.732;2023-10-31T11:42:47;12.70;99.90
21019;DHT22;10667;51.056;3.732;2023-10-31T11:47:57;12.80;99.90
21019;DHT22;10667;51.056;3.732;2023-10-31T11:50:23;13.00;99.90
21019;DHT22;10667;51.056;3.732;2023-10-31T11:53:18;13.00;99.90
21019;DHT22;10667;51.056;3.732;2023-10-31T11:55:45;13.10;99.90
21019;DHT22;10667;51.056;3.732;2023-10-31T11:58:23;13.10;99.90
21019;DHT22;10667;51.056;3.732;2023-10-31T12:00:50;13.00;99.90
21019;DHT22;10667;51.056;3.732;2023-10-31T12:03:18;12.90;99.90
21019;DHT22;10667;51.056;3.732;2023-10-31T12:05:57;12.80;99.90
21019;DHT22;10667;51.056;3.732;2023-10-31T12:08:37;13.00;99.90
21019;DHT22;10667;51.056;3.732;2023-10-31T12:11:13;13.00;99.90
21019;DHT22;10667;51.056;3.732;2023-10-31T12:13:50;13.10;99.90
21019;DHT22;10667;51.056;3.732;2023-10-31T12:16:16;13.20;99.90
21019;DHT22;10667;51.056;3.732;2023-10-31T12:18:42;13.30;99.90
21019;DHT22;10667;51.056;3.732;2023-10-31T12:21:08;13.40;99.90
21019;DHT22;10667;51.056;3.732;2023-10-31T12:23:34;13.50;99.90
21019;DHT22;10667;51.056;3.732;2023-10-31T12:25:59;13.50;99.90
21019;DHT22;10667;51.056;3.732;2023-10-31T12:28:26;13.40;99.90
21019;DHT22;10667;51.056;3.732;2023-10-31T12:30:54;13.50;99.90
21019;DHT22;10667;51.056;3.732;2023-10-31T12:33:21;13.60;99.90
21019;DHT22;10667;51.056;3.732;2023-10-31T12:35:48;13.60;99.90
21019;DHT22;10667;51.056;3.732;2023-10-31T12:38:15;13.40;99.90
21019;DHT22;10667;51.056;3.732;2023-10-31T12:40:43;13.60;99.90
21019;DHT22;10667;51.056;3.732;2023-10-31T12:43:09;13.60;99.90
21019;DHT22;10667;51.056;3.732;2023-10-31T12:45:35;13.70;99.90
21019;DHT22;10667;51.056;3.732;2023-10-31T12:48:08;13.70;99.90
21019;DHT22;10667;51.056;3.732;2023-10-31T12:50:36;13.50;99.90
21019;DHT22;10667;51.056;3.732;2023-10-31T12:53:06;13.70;99.90
21019;DHT22;10667;51.056;3.732;2023-10-31T12:55:39;13.60;99.90
21019;DHT22;10667;51.056;3.732;2023-10-31T12:58:05;13.80;99.90
21019;DHT22;10667;51.056;3.732;2023-10-31T13:00:34;13.80;99.90
21019;DHT22;10667;51.056;3.732;2023-10-31T13:03:02;13.90;99.90
21019;DHT22;10667;51.056;3.732;2023-10-31T13:05:29;13.80;99.90
21019;DHT22;10667;51.056;3.732;2023-10-31T13:07:55;13.80;99.90
21019;DHT22;10667;51.056;3.732;2023-10-31T13:10:23;13.80;99.90
21019;DHT22;10667;51.056;3.732;2023-10-31T13:12:50;13.90;99.90
21019;DHT22;10667;51.056;3.732;2023-10-31T13:15:17;13.90;99.90
21019;DHT22;10667;51.056;3.732;2023-10-31T13:17:44;13.90;99.90
21019;DHT22;10667;51.056;3.732;2023-10-31T13:20:10;14.10;99.90
21019;DHT22;10667;51.056;3.732;2023-10-31T13:22:37;14.30;99.90
21019;DHT22;10667;51.056;3.732;2023-10-31T13:25:04;14.40;99.90
21019;DHT22;10667;51.056;3.732;2023-10-31T13:27:50;14.20;99.90
21019;DHT22;10667;51.056;3.732;2023-10-31T13:30:17;14.20;99.90
21019;DHT22;10667;51.056;3.732;2023-10-31T13:32:43;14.30;99.90
21019;DHT22;10667;51.056;3.732;2023-10-31T13:35:09;14.20;99.90
21019;DHT22;10667;51.056;3.732;2023-10-31T13:37:36;14.30;99.90
21019;DHT22;10667;51.056;3.732;2023-10-31T13:40:05;14.40;99.90
21019;DHT22;10667;51.056;3.732;2023-10-31T13:42:30;14.70;99.90
21019;DHT22;10667;51.056;3.732;2023-10-31T13:44:56;14.80;99.90
21019;DHT22;10667;51.056;3.732;2023-10-31T13:47:22;14.70;99.90
21019;DHT22;10667;51.056;3.732;2023-10-31T13:49:47;14.70;99.90
21019;DHT22;10667;51.056;3.732;2023-10-31T13:52:14;14.60;99.90
21019;DHT22;10667;51.056;3.732;2023-10-31T13:54:40;14.70;99.90
21019;DHT22;10667;51.056;3.732;2023-10-31T13:57:06;14.80;99.90
21019;DHT22;10667;51.056;3.732;2023-10-31T13:59:31;14.70;99.90
21019;DHT22;10667;51.056;3.732;2023-10-31T14:01:57;14.70;99.90
21019;DHT22;10667;51.056;3.732;2023-10-31T14:04:23;14.70;99.90
21019;DHT22;10667;51.056;3.732;2023-10-31T14:06:48;14.70;99.90
21019;DHT22;10667;51.056;3.732;2023-10-31T14:09:14;14.80;99.90
21019;DHT22;10667;51.056;3.732;2023-10-31T14:11:41;14.80;99.90
21019;DHT22;10667;51.056;3.732;2023-10-31T14:14:07;14.90;99.90
21019;DHT22;10667;51.056;3.732;2023-10-31T14:16:35;14.90;99.90
21019;DHT22;10667;51.056;3.732;2023-10-31T14:19:01;14.90;99.90
21019;DHT22;10667;51.056;3.732;2023-10-31T14:21:28;14.90;99.90
21019;DHT22;10667;51.056;3.732;2023-10-31T14:23:54;14.80;99.90
21019;DHT22;10667;51.056;3.732;2023-10-31T14:26:20;14.80;99.90
21019;DHT22;10667;51.056;3.732;2023-10-31T14:28:46;14.90;99.90
21019;DHT22;10667;51.056;3.732;2023-10-31T14:31:13;15.00;99.90
21019;DHT22;10667;51.056;3.732;2023-10-31T14:33:38;15.10;99.90
21019;DHT22;10667;51.056;3.732;2023-10-31T14:36:04;15.10;99.90
21019;DHT22;10667;51.056;3.732;2023-10-31T14:38:30;15.00;99.90
21019;DHT22;10667;51.056;3.732;2023-10-31T14:40:56;14.90;99.90
21019;DHT22;10667;51.056;3.732;2023-10-31T14:43:21;15.10;99.90
21019;DHT22;10667;51.056;3.732;2023-10-31T14:45:47;15.00;99.90
21019;DHT22;10667;51.056;3.732;2023-10-31T14:48:13;15.20;99.90
21019;DHT22;10667;51.056;3.732;2023-10-31T14:50:38;15.20;99.90
21019;DHT22;10667;51.056;3.732;2023-10-31T14:53:05;15.10;99.90
21019;DHT22;10667;51.056;3.732;2023-10-31T14:55:31;15.10;99.90
21019;DHT22;10667;51.056;3.732;2023-10-31T14:57:57;15.00;99.90
21019;DHT22;10667;51.056;3.732;2023-10-31T15:00:22;14.90;99.90
21019;DHT22;10667;51.056;3.732;2023-10-31T15:02:48;15.00;99.90
21019;DHT22;10667;51.056;3.732;2023-10-31T15:05:14;14.90;99.90
21019;DHT22;10667;51.056;3.732;2023-10-31T15:07:39;15.00;99.90
21019;DHT22;10667;51.056;3.732;2023-10-31T15:10:06;15.10;99.90
21019;DHT22;10667;51.056;3.732;2023-10-31T15:12:32;15.20;99.90
21019;DHT22;10667;51.056;3.732;2023-10-31T15:14:58;15.40;99.90
21019;DHT22;10667;51.056;3.732;2023-10-31T15:17:24;15.30;99.90
21019;DHT22;10667;51.056;3.732;2023-10-31T15:19:49;15.30;99.90
21019;DHT22;10667;51.056;3.732;2023-10-31T15:22:15;15.10;99.90
21019;DHT22;10667;51.056;3.732;2023-10-31T15:24:41;15.40;99.90
21019;DHT22;10667;51.056;3.732;2023-10-31T15:27:07;15.40;99.90
21019;DHT22;10667;51.056;3.732;2023-10-31T15:29:33;15.40;99.90
21019;DHT22;10667;51.056;3.732;2023-10-31T15:31:59;15.40;99.90